createdAt,value
2023-03-16T00:01:27.070Z,53.55
2023-03-16T00:03:54.904Z,53.50
2023-03-16T00:06:25.194Z,54.25
2023-03-16T00:08:58.812Z,53.73
2023-03-16T00:11:27.979Z,53.83
2023-03-16T00:13:55.792Z,54.65
2023-03-16T00:16:23.590Z,53.52
2023-03-16T00:18:51.329Z,54.33
2023-03-16T00:21:19.075Z,53.99
2023-03-16T00:23:46.784Z,54.15
2023-03-16T00:26:15.141Z,54.06
2023-03-16T00:28:44.207Z,54.50
2023-03-16T00:31:14.797Z,53.95
2023-03-16T00:33:43.833Z,54.00
2023-03-16T00:36:11.755Z,54.51
2023-03-16T00:38:45.401Z,54.03
2023-03-16T00:41:15.363Z,54.27
2023-03-16T00:43:45.587Z,53.97
2023-03-16T00:46:15.053Z,54.23
2023-03-16T00:48:44.495Z,54.13
2023-03-16T00:51:14.813Z,54.04
2023-03-16T00:53:44.387Z,54.40
2023-03-16T00:56:13.743Z,54.23
2023-03-16T00:58:43.109Z,54.12
2023-03-16T01:01:16.211Z,54.13
2023-03-16T01:03:44.505Z,54.52
2023-03-16T01:06:14.187Z,54.64
2023-03-16T01:08:42.900Z,54.18
2023-03-16T01:11:12.804Z,54.09
2023-03-16T01:13:40.936Z,54.61
2023-03-16T01:16:09.811Z,54.50
2023-03-16T01:18:38.925Z,54.44
2023-03-16T01:21:08.964Z,54.78
2023-03-16T01:23:37.814Z,53.96
2023-03-16T01:26:05.768Z,54.30
2023-03-16T01:28:34.365Z,55.07
2023-03-16T01:31:06.599Z,53.90
2023-03-16T01:33:35.102Z,54.69
2023-03-16T01:36:08.314Z,54.44
2023-03-16T01:38:36.460Z,54.46
2023-03-16T01:41:04.183Z,54.79
2023-03-16T01:43:33.316Z,54.45
2023-03-16T01:46:22.738Z,54.96
2023-03-16T01:48:56.405Z,54.15
2023-03-16T01:51:30.588Z,54.88
2023-03-16T01:54:04.362Z,55.12
2023-03-16T01:56:37.201Z,55.08
2023-03-16T01:59:10.871Z,54.77
2023-03-16T02:01:38.993Z,55.42
2023-03-16T02:04:19.000Z,55.07
2023-03-16T02:06:48.586Z,54.58
2023-03-16T02:09:17.642Z,55.32
2023-03-16T02:11:45.345Z,55.11
2023-03-16T02:14:14.149Z,55.08
2023-03-16T02:16:42.825Z,54.90
2023-03-16T02:19:17.758Z,55.01
2023-03-16T02:21:55.267Z,55.63
2023-03-16T02:24:23.536Z,55.20
2023-03-16T02:26:56.053Z,55.24
2023-03-16T02:29:46.479Z,55.64
2023-03-16T02:32:15.726Z,54.92
2023-03-16T02:34:44.106Z,55.84
2023-03-16T02:37:13.032Z,55.98
2023-03-16T02:39:43.967Z,55.56
2023-03-16T02:42:16.426Z,55.10
2023-03-16T02:44:49.657Z,55.63
2023-03-16T02:47:25.737Z,55.50
2023-03-16T02:49:53.450Z,54.96
2023-03-16T02:52:21.168Z,55.48
2023-03-16T02:54:48.833Z,55.25
2023-03-16T02:57:16.583Z,54.78
2023-03-16T02:59:45.728Z,55.24
2023-03-16T03:02:13.481Z,55.55
2023-03-16T03:04:41.844Z,56.10
2023-03-16T03:07:09.786Z,55.75
2023-03-16T03:09:37.480Z,55.73
2023-03-16T03:12:05.796Z,55.74
2023-03-16T03:14:38.005Z,55.35
2023-03-16T03:17:08.295Z,55.43
2023-03-16T03:19:36.579Z,55.46
2023-03-16T03:22:06.426Z,55.72
2023-03-16T03:24:35.315Z,55.83
2023-03-16T03:27:05.783Z,54.98
2023-03-16T03:29:35.264Z,55.80
2023-03-16T03:32:03.485Z,55.94
2023-03-16T03:34:32.837Z,55.60
2023-03-16T03:37:01.160Z,55.26
2023-03-16T03:39:28.894Z,56.00
2023-03-16T03:41:56.575Z,55.50
2023-03-16T03:44:24.978Z,56.12
2023-03-16T03:46:52.684Z,55.61
2023-03-16T03:49:20.728Z,55.46
2023-03-16T03:51:49.796Z,55.63
2023-03-16T03:54:17.504Z,55.60
2023-03-16T03:56:45.182Z,56.06
2023-03-16T03:59:12.966Z,56.01
2023-03-16T04:01:40.651Z,55.81
2023-03-16T04:04:08.404Z,55.93
2023-03-16T04:06:36.344Z,55.64
2023-03-16T04:09:05.494Z,55.42
2023-03-16T04:11:33.162Z,56.10
2023-03-16T04:14:01.108Z,55.23
2023-03-16T04:16:28.881Z,56.32
2023-03-16T04:18:56.946Z,56.17
2023-03-16T04:21:25.172Z,55.77
2023-03-16T04:23:54.290Z,56.16
2023-03-16T04:26:25.565Z,56.33
2023-03-16T04:28:53.709Z,56.03
2023-03-16T04:31:21.512Z,55.96
2023-03-16T04:33:49.486Z,56.04
2023-03-16T04:36:17.464Z,56.19
2023-03-16T04:38:45.172Z,56.19
2023-03-16T04:41:12.874Z,56.61
2023-03-16T04:43:43.222Z,56.50
2023-03-16T04:46:11.816Z,56.22
2023-03-16T04:48:39.544Z,55.45
2023-03-16T04:51:07.734Z,56.01
2023-03-16T04:53:35.506Z,55.88
2023-03-16T04:56:04.094Z,55.56
2023-03-16T04:58:31.848Z,55.33
2023-03-16T05:01:01.071Z,56.06
2023-03-16T05:03:28.783Z,56.15
2023-03-16T05:05:56.529Z,56.20
2023-03-16T05:08:24.253Z,56.10
2023-03-16T05:10:52.029Z,55.88
2023-03-16T05:13:19.687Z,55.68
2023-03-16T05:15:47.414Z,56.51
2023-03-16T05:18:16.620Z,56.03
2023-03-16T05:20:45.530Z,56.36
2023-03-16T05:23:13.232Z,56.91
2023-03-16T05:25:40.980Z,55.50
2023-03-16T05:28:08.751Z,56.28
2023-03-16T05:30:36.886Z,56.05
2023-03-16T05:33:05.073Z,56.28
2023-03-16T05:35:34.226Z,55.85
2023-03-16T05:38:02.638Z,56.50
2023-03-16T05:40:30.520Z,56.32
2023-03-16T05:43:00.419Z,56.49
2023-03-16T05:45:29.060Z,56.37
2023-03-16T05:47:57.287Z,56.18
2023-03-16T05:50:26.576Z,56.97
2023-03-16T05:52:55.798Z,56.15
2023-03-16T05:55:23.492Z,56.48
2023-03-16T05:57:51.203Z,56.25
2023-03-16T06:00:20.910Z,56.29
2023-03-16T06:02:51.221Z,56.33
2023-03-16T06:05:21.817Z,56.32
2023-03-16T06:07:50.269Z,56.85
2023-03-16T06:10:19.751Z,56.67
2023-03-16T06:12:47.789Z,56.20
2023-03-16T06:15:15.705Z,56.98
2023-03-16T06:17:43.406Z,56.86
2023-03-16T06:20:14.373Z,56.59
2023-03-16T06:22:43.282Z,56.16
2023-03-16T06:25:14.091Z,56.94
2023-03-16T06:27:43.834Z,56.55
2023-03-16T06:30:14.025Z,56.58
2023-03-16T06:32:43.235Z,56.37
2023-03-16T06:35:11.401Z,56.19
2023-03-16T06:37:46.945Z,56.73
2023-03-16T06:40:14.953Z,56.53
2023-03-16T06:42:46.325Z,57.38
2023-03-16T06:45:16.546Z,56.83
2023-03-16T06:47:44.437Z,56.83
2023-03-16T06:50:12.833Z,57.13
2023-03-16T06:52:41.519Z,57.72
2023-03-16T06:55:12.468Z,57.58
2023-03-16T06:57:40.317Z,57.23
2023-03-16T07:00:11.771Z,57.40
2023-03-16T07:02:40.553Z,57.50
2023-03-16T07:05:11.059Z,56.96
2023-03-16T07:07:38.782Z,56.61
2023-03-16T07:10:07.151Z,57.35
2023-03-16T07:12:34.990Z,57.47
2023-03-16T07:15:02.716Z,58.02
2023-03-16T07:17:32.185Z,57.69
2023-03-16T07:20:00.013Z,57.31
2023-03-16T07:22:27.764Z,57.67
2023-03-16T07:24:57.458Z,57.00
2023-03-16T07:27:25.568Z,57.40
2023-03-16T07:29:53.495Z,57.74
2023-03-16T07:32:21.693Z,57.53
2023-03-16T07:34:50.829Z,57.14
2023-03-16T07:37:24.996Z,57.27
2023-03-16T07:39:53.369Z,58.02
2023-03-16T07:42:22.640Z,56.94
2023-03-16T07:44:51.913Z,57.09
2023-03-16T07:47:19.746Z,57.37
2023-03-16T07:49:47.496Z,56.90
2023-03-16T07:52:16.622Z,56.92
2023-03-16T07:54:44.381Z,57.59
2023-03-16T07:57:12.608Z,57.30
2023-03-16T07:59:40.348Z,56.71
2023-03-16T08:02:11.759Z,57.12
2023-03-16T08:04:42.339Z,57.14
2023-03-16T08:07:10.811Z,57.00
2023-03-16T08:09:40.080Z,56.62
2023-03-16T08:12:09.502Z,56.87
2023-03-16T08:14:38.113Z,56.94
2023-03-16T08:17:07.454Z,57.11
2023-03-16T08:19:35.368Z,57.14
2023-03-16T08:22:03.657Z,57.19
2023-03-16T08:24:31.494Z,57.36
2023-03-16T08:27:01.076Z,56.81
2023-03-16T08:29:28.845Z,56.56
2023-03-16T08:31:57.596Z,57.16
2023-03-16T08:34:26.819Z,57.15
2023-03-16T08:36:55.304Z,57.72
2023-03-16T08:39:23.022Z,57.13
2023-03-16T08:41:51.121Z,57.58
2023-03-16T08:44:20.166Z,57.20
2023-03-16T08:46:48.082Z,56.55
2023-03-16T08:49:15.926Z,57.17
2023-03-16T08:51:44.931Z,56.93
2023-03-16T08:54:12.803Z,56.50
2023-03-16T08:56:40.492Z,57.43
2023-03-16T08:59:16.810Z,57.63
2023-03-16T09:01:52.948Z,56.58
2023-03-16T09:04:21.570Z,56.41
2023-03-16T09:07:02.303Z,55.85
2023-03-16T09:09:35.766Z,56.02
2023-03-16T09:12:04.256Z,55.28
2023-03-16T09:14:32.208Z,54.73
2023-03-16T09:17:01.341Z,54.32
2023-03-16T09:19:34.854Z,53.64
2023-03-16T09:22:08.577Z,52.97
2023-03-16T09:24:36.258Z,53.01
2023-03-16T09:27:05.293Z,53.36
2023-03-16T09:29:33.108Z,53.52
2023-03-16T09:32:02.254Z,53.79
2023-03-16T09:34:30.581Z,52.36
2023-03-16T09:36:59.158Z,51.94
2023-03-16T09:39:26.922Z,52.11
2023-03-16T09:42:01.120Z,51.87
2023-03-16T09:44:39.893Z,51.58
2023-03-16T09:47:12.944Z,51.34
2023-03-16T09:49:46.451Z,51.39
2023-03-16T09:52:28.064Z,51.58
2023-03-16T09:55:01.861Z,51.84
2023-03-16T09:57:34.770Z,52.79
2023-03-16T10:00:17.257Z,52.85
2023-03-16T10:02:59.901Z,53.50
2023-03-16T10:05:28.334Z,54.29
2023-03-16T10:08:07.786Z,54.42
2023-03-16T10:10:52.135Z,54.84
2023-03-16T10:13:31.619Z,55.34
2023-03-16T10:16:04.297Z,54.47
2023-03-16T10:18:40.393Z,55.24
2023-03-16T10:21:14.168Z,55.65
2023-03-16T10:23:44.095Z,54.96
2023-03-16T10:26:16.772Z,55.52
2023-03-16T10:28:45.601Z,55.62
2023-03-16T10:31:14.762Z,55.04
2023-03-16T10:33:44.011Z,55.83
2023-03-16T10:36:17.053Z,55.23
2023-03-16T10:38:49.175Z,54.61
2023-03-16T10:41:23.564Z,54.38
2023-03-16T10:43:53.114Z,53.71
2023-03-16T10:46:21.066Z,53.08
2023-03-16T10:49:00.227Z,52.59
2023-03-16T10:51:31.019Z,52.18
2023-03-16T10:54:10.237Z,51.95
2023-03-16T10:56:38.463Z,50.79
2023-03-16T10:59:25.269Z,51.51
2023-03-16T11:01:53.019Z,51.46
2023-03-16T11:04:22.140Z,51.73
2023-03-16T11:06:54.746Z,52.19
2023-03-16T11:09:26.134Z,53.08
2023-03-16T11:11:54.045Z,53.90
2023-03-16T11:14:26.223Z,53.91
2023-03-16T11:17:02.314Z,54.64
2023-03-16T11:19:34.516Z,54.63
2023-03-16T11:22:07.395Z,54.98
2023-03-16T11:24:46.615Z,55.29
2023-03-16T11:27:23.023Z,55.27
2023-03-16T11:30:02.819Z,55.42
2023-03-16T11:32:34.518Z,55.96
2023-03-16T11:35:08.046Z,56.05
2023-03-16T11:37:51.937Z,55.69
2023-03-16T11:40:31.217Z,55.62
2023-03-16T11:43:08.391Z,56.07
2023-03-16T11:45:43.163Z,55.44
2023-03-16T11:48:33.294Z,55.87
2023-03-16T11:51:10.388Z,55.91
2023-03-16T11:53:52.624Z,55.94
2023-03-16T11:56:33.008Z,55.53
2023-03-16T11:59:37.805Z,55.94
2023-03-16T12:02:27.306Z,56.01
2023-03-16T12:05:11.613Z,56.30
2023-03-16T12:07:56.736Z,56.72
2023-03-16T12:10:27.074Z,56.05
2023-03-16T12:13:03.395Z,55.92
2023-03-16T12:15:38.438Z,56.11
2023-03-16T12:18:16.343Z,56.31
2023-03-16T12:20:51.427Z,56.20
2023-03-16T12:23:23.465Z,56.14
2023-03-16T12:25:53.435Z,56.32
2023-03-16T12:28:25.058Z,56.52
2023-03-16T12:31:13.955Z,56.01
2023-03-16T12:33:53.920Z,56.55
2023-03-16T12:36:55.889Z,56.47
2023-03-16T12:39:45.719Z,56.14
2023-03-16T12:42:29.392Z,56.24
2023-03-16T12:45:02.971Z,56.15
2023-03-16T12:47:34.760Z,56.19
2023-03-16T12:50:07.432Z,56.05
2023-03-16T12:52:43.154Z,55.99
2023-03-16T12:55:16.658Z,56.56
2023-03-16T12:57:45.999Z,55.94
2023-03-16T13:00:16.129Z,55.94
2023-03-16T13:02:50.822Z,56.05
2023-03-16T13:05:29.953Z,56.00
2023-03-16T13:08:08.033Z,55.78
2023-03-16T13:10:38.692Z,56.20
2023-03-16T13:13:13.086Z,55.88
2023-03-16T13:15:40.859Z,56.01
2023-03-16T13:18:23.845Z,56.01
2023-03-16T13:20:55.784Z,55.99
2023-03-16T13:23:27.474Z,56.10
2023-03-16T13:26:07.151Z,55.88
2023-03-16T13:28:38.717Z,55.45
2023-03-16T13:31:07.572Z,55.30
2023-03-16T13:33:37.086Z,55.24
2023-03-16T13:36:07.173Z,55.61
2023-03-16T13:38:35.092Z,55.61
2023-03-16T13:41:09.948Z,55.60
2023-03-16T13:43:40.704Z,56.05
2023-03-16T13:46:16.001Z,55.87
2023-03-16T13:48:44.439Z,55.97
2023-03-16T13:51:17.312Z,55.76
2023-03-16T13:53:45.988Z,55.91
2023-03-16T13:56:17.970Z,55.83
2023-03-16T13:58:48.346Z,56.01
2023-03-16T14:01:25.343Z,55.89
2023-03-16T14:03:54.662Z,56.02
2023-03-16T14:06:26.619Z,55.70
2023-03-16T14:08:58.713Z,55.63
2023-03-16T14:11:29.491Z,56.04
2023-03-16T14:13:58.814Z,55.50
2023-03-16T14:16:29.757Z,55.13
2023-03-16T14:19:04.413Z,54.95
2023-03-16T14:21:35.029Z,55.12
2023-03-16T14:24:05.500Z,54.95
2023-03-16T14:26:42.517Z,54.41
2023-03-16T14:29:20.025Z,54.62
2023-03-16T14:31:47.745Z,54.49
2023-03-16T14:34:28.905Z,53.85
2023-03-16T14:37:07.301Z,53.09
2023-03-16T14:39:35.430Z,52.37
2023-03-16T14:42:08.566Z,51.78
2023-03-16T14:44:39.321Z,51.19
2023-03-16T14:47:08.140Z,51.44
2023-03-16T14:49:38.134Z,49.97
2023-03-16T14:52:09.342Z,50.31
2023-03-16T14:54:37.457Z,49.96
2023-03-16T14:57:07.221Z,49.82
2023-03-16T14:59:35.162Z,49.97
2023-03-16T15:02:04.205Z,50.24
2023-03-16T15:04:34.959Z,51.35
2023-03-16T15:07:08.793Z,51.86
2023-03-16T15:09:39.762Z,52.35
2023-03-16T15:12:15.492Z,53.29
2023-03-16T15:15:00.995Z,53.06
2023-03-16T15:17:28.705Z,52.85
2023-03-16T15:19:56.396Z,53.15
2023-03-16T15:22:29.481Z,53.10
2023-03-16T15:24:58.117Z,53.79
2023-03-16T15:27:34.061Z,53.93
2023-03-16T15:30:01.915Z,53.46
2023-03-16T15:32:29.755Z,53.73
2023-03-16T15:34:57.708Z,53.81
2023-03-16T15:37:27.715Z,53.74
2023-03-16T15:39:55.652Z,53.40
2023-03-16T15:42:23.665Z,53.39
2023-03-16T15:44:52.809Z,53.59
2023-03-16T15:47:20.716Z,53.96
2023-03-16T15:49:48.508Z,54.08
2023-03-16T15:52:26.627Z,54.36
2023-03-16T15:54:57.294Z,54.02
2023-03-16T15:57:25.426Z,53.77
2023-03-16T15:59:54.666Z,53.63
2023-03-16T16:02:28.502Z,53.48
2023-03-16T16:04:57.072Z,53.50
2023-03-16T16:07:24.837Z,53.57
2023-03-16T16:09:52.737Z,53.83
2023-03-16T16:12:26.705Z,53.83
2023-03-16T16:14:56.949Z,53.84
2023-03-16T16:17:43.878Z,54.32
2023-03-16T16:20:20.451Z,54.63
2023-03-16T16:22:48.272Z,54.09
2023-03-16T16:25:16.514Z,54.57
2023-03-16T16:27:45.035Z,54.44
2023-03-16T16:30:21.036Z,54.20
2023-03-16T16:32:49.376Z,54.17
2023-03-16T16:35:19.479Z,54.42
2023-03-16T16:37:47.478Z,54.57
2023-03-16T16:40:17.598Z,54.50
2023-03-16T16:42:46.185Z,54.14
2023-03-16T16:45:20.893Z,53.05
2023-03-16T16:47:52.336Z,53.30
2023-03-16T16:50:22.664Z,53.85
2023-03-16T16:52:51.668Z,53.84
2023-03-16T16:55:19.697Z,54.00
2023-03-16T16:57:49.334Z,54.32
2023-03-16T17:00:21.926Z,54.16
2023-03-16T17:02:53.433Z,54.22
2023-03-16T17:05:23.538Z,53.96
2023-03-16T17:07:51.990Z,54.21
2023-03-16T17:10:22.208Z,54.37
2023-03-16T17:12:51.708Z,54.14
2023-03-16T17:15:27.914Z,53.52
2023-03-16T17:18:03.010Z,52.83
2023-03-16T17:20:31.186Z,52.82
2023-03-16T17:23:00.117Z,52.42
2023-03-16T17:25:30.273Z,51.65
2023-03-16T17:27:58.609Z,50.90
2023-03-16T17:30:29.956Z,50.61
2023-03-16T17:33:03.406Z,50.93
2023-03-16T17:35:31.942Z,50.55
2023-03-16T17:37:59.858Z,51.13
2023-03-16T17:40:27.722Z,51.71
2023-03-16T17:42:56.529Z,51.87
2023-03-16T17:45:28.832Z,52.28
2023-03-16T17:47:57.094Z,52.78
2023-03-16T17:50:29.657Z,53.01
2023-03-16T17:52:57.621Z,53.07
2023-03-16T17:55:25.959Z,53.39
2023-03-16T17:57:54.895Z,53.37
2023-03-16T18:00:26.648Z,53.13
2023-03-16T18:02:56.750Z,53.47
2023-03-16T18:05:26.534Z,53.41
2023-03-16T18:07:55.088Z,53.70
2023-03-16T18:10:25.458Z,53.42
2023-03-16T18:13:00.741Z,53.87
2023-03-16T18:15:32.236Z,53.85
2023-03-16T18:18:02.559Z,54.07
2023-03-16T18:20:34.690Z,53.86
2023-03-16T18:23:04.834Z,54.21
2023-03-16T18:25:36.064Z,54.40
2023-03-16T18:28:03.808Z,53.80
2023-03-16T18:30:32.835Z,53.49
2023-03-16T18:33:03.998Z,52.86
2023-03-16T18:35:32.237Z,52.83
2023-03-16T18:38:00.633Z,52.51
2023-03-16T18:40:29.222Z,52.42
2023-03-16T18:42:57.249Z,52.32
2023-03-16T18:45:27.885Z,52.21
2023-03-16T18:47:58.015Z,52.26
2023-03-16T18:50:28.730Z,52.31
2023-03-16T18:52:57.380Z,52.96
2023-03-16T18:55:27.137Z,53.04
2023-03-16T18:57:56.566Z,52.76
2023-03-16T19:00:27.200Z,52.92
2023-03-16T19:02:57.409Z,53.09
2023-03-16T19:05:33.789Z,53.11
2023-03-16T19:08:01.796Z,53.34
2023-03-16T19:10:32.835Z,53.14
2023-03-16T19:13:01.316Z,53.31
2023-03-16T19:15:31.918Z,53.13
2023-03-16T19:18:00.002Z,53.37
2023-03-16T19:20:31.369Z,53.24
2023-03-16T19:23:03.844Z,53.34
2023-03-16T19:25:36.059Z,53.56
2023-03-16T19:28:05.733Z,53.28
2023-03-16T19:30:35.630Z,53.47
2023-03-16T19:33:03.769Z,53.82
2023-03-16T19:35:50.407Z,53.72
2023-03-16T19:38:19.316Z,53.58
2023-03-16T19:40:48.820Z,53.49
2023-03-16T19:43:19.103Z,53.56
2023-03-16T19:45:48.311Z,53.32
2023-03-16T19:48:20.411Z,53.47
2023-03-16T19:50:50.237Z,53.55
2023-03-16T19:53:20.109Z,53.54
2023-03-16T19:55:49.091Z,53.64
2023-03-16T19:58:24.629Z,53.65
2023-03-16T20:00:52.418Z,53.75
2023-03-16T20:03:20.220Z,53.66
2023-03-16T20:05:49.295Z,53.69
2023-03-16T20:08:25.428Z,53.56
2023-03-16T20:10:55.348Z,53.91
2023-03-16T20:13:24.722Z,53.60
2023-03-16T20:15:53.313Z,53.68
2023-03-16T20:18:21.543Z,53.51
2023-03-16T20:20:50.884Z,53.38
2023-03-16T20:23:21.414Z,53.52
2023-03-16T20:25:51.016Z,53.69
2023-03-16T20:28:21.317Z,53.58
2023-03-16T20:30:50.170Z,53.57
2023-03-16T20:33:20.719Z,53.55
2023-03-16T20:35:53.320Z,53.51
2023-03-16T20:38:21.852Z,53.97
2023-03-16T20:40:52.234Z,53.82
2023-03-16T20:43:25.096Z,53.54
2023-03-16T20:45:54.405Z,53.66
2023-03-16T20:48:22.580Z,53.57
2023-03-16T20:50:51.933Z,53.40
2023-03-16T20:53:19.704Z,53.45
2023-03-16T20:55:47.636Z,53.64
2023-03-16T20:58:19.986Z,53.53
2023-03-16T21:00:50.105Z,53.49
2023-03-16T21:03:20.649Z,53.44
2023-03-16T21:05:49.083Z,53.33
2023-03-16T21:08:18.965Z,53.62
2023-03-16T21:10:49.797Z,53.62
2023-03-16T21:13:21.627Z,53.46
2023-03-16T21:15:50.817Z,53.43
2023-03-16T21:18:20.827Z,53.45
2023-03-16T21:20:50.056Z,53.33
2023-03-16T21:23:21.634Z,53.08
2023-03-16T21:25:51.752Z,52.81
2023-03-16T21:28:21.837Z,52.91
2023-03-16T21:30:51.975Z,52.79
2023-03-16T21:33:25.876Z,52.98
2023-03-16T21:35:54.030Z,52.81
2023-03-16T21:38:24.102Z,52.72
2023-03-16T21:40:51.958Z,53.12
2023-03-16T21:43:20.022Z,52.77
2023-03-16T21:45:49.151Z,53.05
2023-03-16T21:48:21.535Z,53.12
2023-03-16T21:50:51.020Z,53.04
2023-03-16T21:53:22.088Z,53.07
2023-03-16T21:55:52.050Z,53.17
2023-03-16T21:58:19.936Z,53.05
2023-03-16T22:00:48.467Z,52.93
2023-03-16T22:03:29.586Z,53.04
2023-03-16T22:06:01.498Z,53.24
2023-03-16T22:08:31.108Z,53.20
2023-03-16T22:11:01.568Z,53.35
2023-03-16T22:13:29.826Z,53.15
2023-03-16T22:15:59.134Z,53.21
2023-03-16T22:18:30.370Z,53.31
2023-03-16T22:20:59.957Z,53.24
2023-03-16T22:23:34.061Z,53.34
2023-03-16T22:26:04.172Z,53.14
2023-03-16T22:28:32.852Z,53.21
2023-03-16T22:31:03.560Z,53.33
2023-03-16T22:33:35.644Z,53.39
2023-03-16T22:36:08.210Z,53.26
2023-03-16T22:38:36.686Z,53.46
2023-03-16T22:41:06.209Z,53.30
2023-03-16T22:43:38.065Z,53.38
2023-03-16T22:46:06.203Z,53.56
2023-03-16T22:48:34.000Z,53.60
2023-03-16T22:51:04.861Z,53.36
2023-03-16T22:53:38.908Z,53.54
2023-03-16T22:56:10.229Z,53.59
2023-03-16T22:58:40.405Z,53.31
2023-03-16T23:01:17.056Z,53.79
2023-03-16T23:03:45.790Z,53.57
2023-03-16T23:06:18.216Z,53.55
2023-03-16T23:08:46.141Z,53.41
2023-03-16T23:11:19.632Z,53.63
2023-03-16T23:13:47.710Z,53.53
2023-03-16T23:16:20.974Z,53.62
2023-03-16T23:18:49.704Z,53.52
2023-03-16T23:21:20.615Z,53.67
2023-03-16T23:24:02.729Z,53.50
2023-03-16T23:26:33.306Z,53.65
2023-03-16T23:29:01.061Z,53.63
2023-03-16T23:31:29.015Z,53.63
2023-03-16T23:33:56.953Z,53.57
2023-03-16T23:36:26.148Z,53.46
2023-03-16T23:38:54.299Z,53.64
2023-03-16T23:41:24.482Z,53.66
2023-03-16T23:43:54.708Z,53.60
2023-03-16T23:46:24.790Z,53.38
2023-03-16T23:48:56.376Z,53.56
2023-03-16T23:51:27.158Z,53.58
2023-03-16T23:53:55.724Z,53.50
2023-03-16T23:56:23.489Z,53.82
2023-03-16T23:58:51.729Z,53.77
